sensor_id;sensor_type;location;lat;lon;timestamp;P1;durP1;ratioP1;P2;durP2;ratioP2
21018;SDS011;10667;51.056;3.732;2022-11-20T00:00:50;73.90;;;37.88;;
21018;SDS011;10667;51.056;3.732;2022-11-20T00:03:16;88.50;;;41.30;;
21018;SDS011;10667;51.056;3.732;2022-11-20T00:05:42;83.00;;;39.40;;
21018;SDS011;10667;51.056;3.732;2022-11-20T00:08:08;81.22;;;39.42;;
21018;SDS011;10667;51.056;3.732;2022-11-20T00:10:37;85.57;;;40.80;;
21018;SDS011;10667;51.056;3.732;2022-11-20T00:13:04;89.32;;;40.65;;
21018;SDS011;10667;51.056;3.732;2022-11-20T00:15:30;83.18;;;39.35;;
21018;SDS011;10667;51.056;3.732;2022-11-20T00:17:56;78.90;;;37.78;;
21018;SDS011;10667;51.056;3.732;2022-11-20T00:20:22;76.93;;;38.70;;
21018;SDS011;10667;51.056;3.732;2022-11-20T00:22:47;83.57;;;38.67;;
21018;SDS011;10667;51.056;3.732;2022-11-20T00:25:14;72.88;;;37.35;;
21018;SDS011;10667;51.056;3.732;2022-11-20T00:27:40;73.88;;;37.30;;
21018;SDS011;10667;51.056;3.732;2022-11-20T00:30:06;84.35;;;40.33;;
21018;SDS011;10667;51.056;3.732;2022-11-20T00:32:32;81.70;;;37.60;;
21018;SDS011;10667;51.056;3.732;2022-11-20T00:34:58;83.45;;;39.60;;
21018;SDS011;10667;51.056;3.732;2022-11-20T00:37:23;79.78;;;38.95;;
21018;SDS011;10667;51.056;3.732;2022-11-20T00:39:49;80.45;;;38.10;;
21018;SDS011;10667;51.056;3.732;2022-11-20T00:42:15;74.65;;;35.03;;
21018;SDS011;10667;51.056;3.732;2022-11-20T00:44:40;79.57;;;38.25;;
21018;SDS011;10667;51.056;3.732;2022-11-20T00:47:06;78.13;;;36.60;;
21018;SDS011;10667;51.056;3.732;2022-11-20T00:49:31;83.97;;;37.65;;
21018;SDS011;10667;51.056;3.732;2022-11-20T00:51:57;74.15;;;36.58;;
21018;SDS011;10667;51.056;3.732;2022-11-20T00:54:23;84.03;;;36.80;;
21018;SDS011;10667;51.056;3.732;2022-11-20T00:56:48;82.03;;;38.63;;
21018;SDS011;10667;51.056;3.732;2022-11-20T00:59:14;89.43;;;39.40;;
21018;SDS011;10667;51.056;3.732;2022-11-20T01:01:40;78.18;;;38.65;;
21018;SDS011;10667;51.056;3.732;2022-11-20T01:04:05;83.45;;;38.50;;
21018;SDS011;10667;51.056;3.732;2022-11-20T01:06:32;76.82;;;37.33;;
21018;SDS011;10667;51.056;3.732;2022-11-20T01:09:01;76.70;;;35.90;;
21018;SDS011;10667;51.056;3.732;2022-11-20T01:11:38;79.05;;;37.65;;
21018;SDS011;10667;51.056;3.732;2022-11-20T01:14:07;74.95;;;36.97;;
21018;SDS011;10667;51.056;3.732;2022-11-20T01:16:39;74.95;;;35.97;;
21018;SDS011;10667;51.056;3.732;2022-11-20T01:19:09;77.43;;;37.05;;
21018;SDS011;10667;51.056;3.732;2022-11-20T01:21:38;69.70;;;34.95;;
21018;SDS011;10667;51.056;3.732;2022-11-20T01:24:06;69.80;;;35.42;;
21018;SDS011;10667;51.056;3.732;2022-11-20T01:26:36;70.32;;;34.85;;
21018;SDS011;10667;51.056;3.732;2022-11-20T01:29:03;80.03;;;37.55;;
21018;SDS011;10667;51.056;3.732;2022-11-20T01:31:33;72.55;;;36.30;;
21018;SDS011;10667;51.056;3.732;2022-11-20T01:34:05;76.38;;;35.95;;
21018;SDS011;10667;51.056;3.732;2022-11-20T01:36:32;67.82;;;35.25;;
21018;SDS011;10667;51.056;3.732;2022-11-20T01:39:00;66.78;;;33.78;;
21018;SDS011;10667;51.056;3.732;2022-11-20T01:41:28;67.15;;;34.03;;
21018;SDS011;10667;51.056;3.732;2022-11-20T01:44:15;76.53;;;37.95;;
21018;SDS011;10667;51.056;3.732;2022-11-20T01:46:59;73.65;;;34.05;;
21018;SDS011;10667;51.056;3.732;2022-11-20T01:49:44;72.97;;;36.67;;
21018;SDS011;10667;51.056;3.732;2022-11-20T01:52:18;71.30;;;35.55;;
21018;SDS011;10667;51.056;3.732;2022-11-20T01:54:59;78.82;;;38.05;;
21018;SDS011;10667;51.056;3.732;2022-11-20T01:57:29;71.88;;;35.63;;
21018;SDS011;10667;51.056;3.732;2022-11-20T02:00:00;71.93;;;36.80;;
21018;SDS011;10667;51.056;3.732;2022-11-20T02:02:29;78.45;;;34.80;;
21018;SDS011;10667;51.056;3.732;2022-11-20T02:04:55;71.72;;;36.15;;
21018;SDS011;10667;51.056;3.732;2022-11-20T02:07:25;75.22;;;36.60;;
21018;SDS011;10667;51.056;3.732;2022-11-20T02:09:52;71.60;;;36.00;;
21018;SDS011;10667;51.056;3.732;2022-11-20T02:12:18;72.90;;;35.50;;
21018;SDS011;10667;51.056;3.732;2022-11-20T02:15:02;68.07;;;33.28;;
21018;SDS011;10667;51.056;3.732;2022-11-20T02:17:29;72.85;;;34.78;;
21018;SDS011;10667;51.056;3.732;2022-11-20T02:19:55;72.18;;;35.88;;
21018;SDS011;10667;51.056;3.732;2022-11-20T02:22:26;68.78;;;33.95;;
21018;SDS011;10667;51.056;3.732;2022-11-20T02:24:58;71.95;;;34.00;;
21018;SDS011;10667;51.056;3.732;2022-11-20T02:27:26;79.80;;;37.33;;
21018;SDS011;10667;51.056;3.732;2022-11-20T02:32:20;67.03;;;34.25;;
21018;SDS011;10667;51.056;3.732;2022-11-20T02:34:47;78.32;;;35.90;;
21018;SDS011;10667;51.056;3.732;2022-11-20T02:37:13;77.68;;;36.63;;
21018;SDS011;10667;51.056;3.732;2022-11-20T02:39:39;81.90;;;36.53;;
21018;SDS011;10667;51.056;3.732;2022-11-20T02:42:06;75.18;;;36.25;;
21018;SDS011;10667;51.056;3.732;2022-11-20T02:44:32;77.22;;;35.72;;
21018;SDS011;10667;51.056;3.732;2022-11-20T02:46:58;78.68;;;35.92;;
21018;SDS011;10667;51.056;3.732;2022-11-20T02:49:24;76.47;;;36.20;;
21018;SDS011;10667;51.056;3.732;2022-11-20T02:51:50;73.00;;;34.58;;
21018;SDS011;10667;51.056;3.732;2022-11-20T02:54:16;76.13;;;36.92;;
21018;SDS011;10667;51.056;3.732;2022-11-20T02:56:42;75.80;;;35.67;;
21018;SDS011;10667;51.056;3.732;2022-11-20T02:59:08;72.03;;;35.28;;
21018;SDS011;10667;51.056;3.732;2022-11-20T03:01:34;76.57;;;35.10;;
21018;SDS011;10667;51.056;3.732;2022-11-20T03:04:00;76.32;;;35.67;;
21018;SDS011;10667;51.056;3.732;2022-11-20T03:06:25;75.05;;;36.13;;
21018;SDS011;10667;51.056;3.732;2022-11-20T03:08:51;74.43;;;35.15;;
21018;SDS011;10667;51.056;3.732;2022-11-20T03:11:17;73.00;;;35.53;;
21018;SDS011;10667;51.056;3.732;2022-11-20T03:13:42;71.18;;;35.20;;
21018;SDS011;10667;51.056;3.732;2022-11-20T03:16:12;75.80;;;35.17;;
21018;SDS011;10667;51.056;3.732;2022-11-20T03:18:40;69.55;;;35.35;;
21018;SDS011;10667;51.056;3.732;2022-11-20T03:21:07;72.88;;;34.28;;
21018;SDS011;10667;51.056;3.732;2022-11-20T03:23:33;71.78;;;32.88;;
21018;SDS011;10667;51.056;3.732;2022-11-20T03:26:07;73.03;;;34.42;;
21018;SDS011;10667;51.056;3.732;2022-11-20T03:28:33;72.75;;;34.33;;
21018;SDS011;10667;51.056;3.732;2022-11-20T03:30:59;71.20;;;34.63;;
21018;SDS011;10667;51.056;3.732;2022-11-20T03:33:33;71.70;;;34.22;;
21018;SDS011;10667;51.056;3.732;2022-11-20T03:36:06;70.90;;;34.47;;
21018;SDS011;10667;51.056;3.732;2022-11-20T03:38:37;70.57;;;34.72;;
21018;SDS011;10667;51.056;3.732;2022-11-20T03:41:13;68.80;;;34.10;;
21018;SDS011;10667;51.056;3.732;2022-11-20T03:46:15;71.32;;;35.15;;
21018;SDS011;10667;51.056;3.732;2022-11-20T03:48:41;74.47;;;33.40;;
21018;SDS011;10667;51.056;3.732;2022-11-20T03:51:14;68.68;;;33.35;;
21018;SDS011;10667;51.056;3.732;2022-11-20T03:53:44;74.57;;;34.55;;
21018;SDS011;10667;51.056;3.732;2022-11-20T03:56:11;81.00;;;35.42;;
21018;SDS011;10667;51.056;3.732;2022-11-20T03:58:38;66.82;;;33.55;;
21018;SDS011;10667;51.056;3.732;2022-11-20T04:01:09;73.55;;;33.42;;
21018;SDS011;10667;51.056;3.732;2022-11-20T04:03:39;69.32;;;33.78;;
21018;SDS011;10667;51.056;3.732;2022-11-20T04:06:06;66.95;;;32.80;;
21018;SDS011;10667;51.056;3.732;2022-11-20T04:08:37;72.28;;;34.00;;
21018;SDS011;10667;51.056;3.732;2022-11-20T04:13:42;68.68;;;33.67;;
21018;SDS011;10667;51.056;3.732;2022-11-20T04:16:10;74.03;;;32.78;;
21018;SDS011;10667;51.056;3.732;2022-11-20T04:18:36;73.03;;;33.42;;
21018;SDS011;10667;51.056;3.732;2022-11-20T04:21:02;65.35;;;33.65;;
21018;SDS011;10667;51.056;3.732;2022-11-20T04:23:29;71.75;;;34.83;;
21018;SDS011;10667;51.056;3.732;2022-11-20T04:25:55;77.28;;;34.80;;
21018;SDS011;10667;51.056;3.732;2022-11-20T04:28:27;69.15;;;33.13;;
21018;SDS011;10667;51.056;3.732;2022-11-20T04:30:52;72.80;;;34.05;;
21018;SDS011;10667;51.056;3.732;2022-11-20T04:33:18;69.82;;;35.83;;
21018;SDS011;10667;51.056;3.732;2022-11-20T04:35:43;65.90;;;32.47;;
21018;SDS011;10667;51.056;3.732;2022-11-20T04:38:12;71.68;;;33.72;;
21018;SDS011;10667;51.056;3.732;2022-11-20T04:40:38;73.28;;;34.20;;
21018;SDS011;10667;51.056;3.732;2022-11-20T04:43:03;66.75;;;32.08;;
21018;SDS011;10667;51.056;3.732;2022-11-20T04:45:29;77.25;;;33.50;;
21018;SDS011;10667;51.056;3.732;2022-11-20T04:47:54;71.78;;;33.45;;
21018;SDS011;10667;51.056;3.732;2022-11-20T04:50:20;77.93;;;34.50;;
21018;SDS011;10667;51.056;3.732;2022-11-20T04:52:46;71.65;;;34.40;;
21018;SDS011;10667;51.056;3.732;2022-11-20T04:55:11;71.85;;;34.63;;
21018;SDS011;10667;51.056;3.732;2022-11-20T04:57:37;74.43;;;34.83;;
21018;SDS011;10667;51.056;3.732;2022-11-20T05:00:03;79.53;;;36.08;;
21018;SDS011;10667;51.056;3.732;2022-11-20T05:02:30;72.22;;;34.72;;
21018;SDS011;10667;51.056;3.732;2022-11-20T05:04:56;75.85;;;34.53;;
21018;SDS011;10667;51.056;3.732;2022-11-20T05:07:22;82.13;;;35.60;;
21018;SDS011;10667;51.056;3.732;2022-11-20T05:09:48;75.43;;;34.60;;
21018;SDS011;10667;51.056;3.732;2022-11-20T05:12:13;74.95;;;35.55;;
21018;SDS011;10667;51.056;3.732;2022-11-20T05:14:39;74.43;;;36.05;;
21018;SDS011;10667;51.056;3.732;2022-11-20T05:17:05;76.63;;;35.60;;
21018;SDS011;10667;51.056;3.732;2022-11-20T05:19:30;76.57;;;35.97;;
21018;SDS011;10667;51.056;3.732;2022-11-20T05:21:56;90.28;;;36.80;;
21018;SDS011;10667;51.056;3.732;2022-11-20T05:24:22;85.38;;;36.08;;
21018;SDS011;10667;51.056;3.732;2022-11-20T05:26:47;81.45;;;36.38;;
21018;SDS011;10667;51.056;3.732;2022-11-20T05:29:13;84.53;;;37.50;;
21018;SDS011;10667;51.056;3.732;2022-11-20T05:31:39;88.50;;;37.70;;
21018;SDS011;10667;51.056;3.732;2022-11-20T05:34:06;87.05;;;38.10;;
21018;SDS011;10667;51.056;3.732;2022-11-20T05:36:32;98.57;;;39.30;;
21018;SDS011;10667;51.056;3.732;2022-11-20T05:38:58;93.65;;;38.20;;
21018;SDS011;10667;51.056;3.732;2022-11-20T05:41:23;89.25;;;39.05;;
21018;SDS011;10667;51.056;3.732;2022-11-20T05:43:49;89.72;;;36.97;;
21018;SDS011;10667;51.056;3.732;2022-11-20T05:46:16;93.10;;;40.15;;
21018;SDS011;10667;51.056;3.732;2022-11-20T05:48:44;93.07;;;38.63;;
21018;SDS011;10667;51.056;3.732;2022-11-20T05:51:11;99.50;;;39.55;;
21018;SDS011;10667;51.056;3.732;2022-11-20T05:53:39;95.82;;;38.25;;
21018;SDS011;10667;51.056;3.732;2022-11-20T05:56:06;86.68;;;37.72;;
21018;SDS011;10667;51.056;3.732;2022-11-20T05:58:35;96.13;;;37.65;;
21018;SDS011;10667;51.056;3.732;2022-11-20T06:03:39;96.72;;;39.10;;
21018;SDS011;10667;51.056;3.732;2022-11-20T06:06:05;92.18;;;39.65;;
21018;SDS011;10667;51.056;3.732;2022-11-20T06:08:31;91.07;;;38.50;;
21018;SDS011;10667;51.056;3.732;2022-11-20T06:10:57;84.00;;;37.83;;
21018;SDS011;10667;51.056;3.732;2022-11-20T06:13:24;90.20;;;37.80;;
21018;SDS011;10667;51.056;3.732;2022-11-20T06:15:50;98.43;;;37.85;;
21018;SDS011;10667;51.056;3.732;2022-11-20T06:18:17;91.45;;;39.05;;
21018;SDS011;10667;51.056;3.732;2022-11-20T06:20:43;93.38;;;38.20;;
21018;SDS011;10667;51.056;3.732;2022-11-20T06:23:09;88.25;;;37.47;;
21018;SDS011;10667;51.056;3.732;2022-11-20T06:25:38;88.07;;;37.05;;
21018;SDS011;10667;51.056;3.732;2022-11-20T06:28:04;85.00;;;35.03;;
21018;SDS011;10667;51.056;3.732;2022-11-20T06:30:30;85.88;;;35.88;;
21018;SDS011;10667;51.056;3.732;2022-11-20T06:32:56;84.47;;;34.78;;
21018;SDS011;10667;51.056;3.732;2022-11-20T06:35:21;83.13;;;35.58;;
21018;SDS011;10667;51.056;3.732;2022-11-20T06:37:47;86.40;;;36.10;;
21018;SDS011;10667;51.056;3.732;2022-11-20T06:40:13;82.53;;;34.42;;
21018;SDS011;10667;51.056;3.732;2022-11-20T06:42:38;84.93;;;34.38;;
21018;SDS011;10667;51.056;3.732;2022-11-20T06:45:04;72.20;;;32.30;;
21018;SDS011;10667;51.056;3.732;2022-11-20T06:47:30;71.97;;;31.35;;
21018;SDS011;10667;51.056;3.732;2022-11-20T06:49:56;74.68;;;32.08;;
21018;SDS011;10667;51.056;3.732;2022-11-20T06:52:21;78.95;;;33.45;;
21018;SDS011;10667;51.056;3.732;2022-11-20T06:54:47;79.30;;;32.95;;
21018;SDS011;10667;51.056;3.732;2022-11-20T06:57:13;79.90;;;33.47;;
21018;SDS011;10667;51.056;3.732;2022-11-20T06:59:38;73.57;;;33.85;;
21018;SDS011;10667;51.056;3.732;2022-11-20T07:02:04;70.57;;;32.70;;
21018;SDS011;10667;51.056;3.732;2022-11-20T07:04:30;79.18;;;32.53;;
21018;SDS011;10667;51.056;3.732;2022-11-20T07:06:55;77.18;;;32.92;;
21018;SDS011;10667;51.056;3.732;2022-11-20T07:09:21;71.93;;;31.83;;
21018;SDS011;10667;51.056;3.732;2022-11-20T07:11:47;73.80;;;33.03;;
21018;SDS011;10667;51.056;3.732;2022-11-20T07:14:12;72.72;;;32.72;;
21018;SDS011;10667;51.056;3.732;2022-11-20T07:16:38;70.75;;;31.60;;
21018;SDS011;10667;51.056;3.732;2022-11-20T07:19:03;73.75;;;30.98;;
21018;SDS011;10667;51.056;3.732;2022-11-20T07:21:29;68.60;;;31.85;;
21018;SDS011;10667;51.056;3.732;2022-11-20T07:23:55;71.97;;;31.85;;
21018;SDS011;10667;51.056;3.732;2022-11-20T07:26:20;65.80;;;31.25;;
21018;SDS011;10667;51.056;3.732;2022-11-20T07:28:46;76.85;;;33.15;;
21018;SDS011;10667;51.056;3.732;2022-11-20T07:31:12;75.93;;;31.60;;
21018;SDS011;10667;51.056;3.732;2022-11-20T07:33:38;78.50;;;32.65;;
21018;SDS011;10667;51.056;3.732;2022-11-20T07:36:03;80.25;;;33.00;;
21018;SDS011;10667;51.056;3.732;2022-11-20T07:38:29;72.47;;;32.55;;
21018;SDS011;10667;51.056;3.732;2022-11-20T07:40:56;78.50;;;31.88;;
21018;SDS011;10667;51.056;3.732;2022-11-20T07:43:26;73.05;;;31.30;;
21018;SDS011;10667;51.056;3.732;2022-11-20T07:45:54;73.65;;;30.88;;
21018;SDS011;10667;51.056;3.732;2022-11-20T07:48:21;74.60;;;31.27;;
21018;SDS011;10667;51.056;3.732;2022-11-20T07:50:47;68.05;;;30.52;;
21018;SDS011;10667;51.056;3.732;2022-11-20T07:53:12;76.82;;;31.83;;
21018;SDS011;10667;51.056;3.732;2022-11-20T07:55:38;80.38;;;32.15;;
21018;SDS011;10667;51.056;3.732;2022-11-20T07:58:04;80.35;;;34.00;;
21018;SDS011;10667;51.056;3.732;2022-11-20T08:00:34;77.30;;;32.30;;
21018;SDS011;10667;51.056;3.732;2022-11-20T08:03:05;78.55;;;31.92;;
21018;SDS011;10667;51.056;3.732;2022-11-20T08:05:31;72.45;;;31.85;;
21018;SDS011;10667;51.056;3.732;2022-11-20T08:07:57;79.22;;;31.83;;
21018;SDS011;10667;51.056;3.732;2022-11-20T08:10:23;74.20;;;32.03;;
21018;SDS011;10667;51.056;3.732;2022-11-20T08:12:49;80.15;;;32.60;;
21018;SDS011;10667;51.056;3.732;2022-11-20T08:15:35;78.43;;;32.53;;
21018;SDS011;10667;51.056;3.732;2022-11-20T08:18:02;80.50;;;33.33;;
21018;SDS011;10667;51.056;3.732;2022-11-20T08:20:29;68.43;;;31.70;;
21018;SDS011;10667;51.056;3.732;2022-11-20T08:23:01;78.57;;;32.38;;
21018;SDS011;10667;51.056;3.732;2022-11-20T08:25:28;79.90;;;33.65;;
21018;SDS011;10667;51.056;3.732;2022-11-20T08:27:58;72.88;;;31.08;;
21018;SDS011;10667;51.056;3.732;2022-11-20T08:30:25;77.25;;;33.00;;
21018;SDS011;10667;51.056;3.732;2022-11-20T08:32:51;72.22;;;30.30;;
21018;SDS011;10667;51.056;3.732;2022-11-20T08:35:16;83.97;;;33.63;;
21018;SDS011;10667;51.056;3.732;2022-11-20T08:37:45;81.22;;;32.75;;
21018;SDS011;10667;51.056;3.732;2022-11-20T08:40:11;70.55;;;30.88;;
21018;SDS011;10667;51.056;3.732;2022-11-20T08:42:45;79.47;;;31.13;;
21018;SDS011;10667;51.056;3.732;2022-11-20T08:45:11;73.70;;;31.90;;
21018;SDS011;10667;51.056;3.732;2022-11-20T08:47:37;73.68;;;32.28;;
21018;SDS011;10667;51.056;3.732;2022-11-20T08:50:02;77.22;;;31.55;;
21018;SDS011;10667;51.056;3.732;2022-11-20T08:52:28;75.70;;;32.55;;
21018;SDS011;10667;51.056;3.732;2022-11-20T08:54:54;69.88;;;31.10;;
21018;SDS011;10667;51.056;3.732;2022-11-20T08:57:19;69.70;;;30.25;;
21018;SDS011;10667;51.056;3.732;2022-11-20T08:59:45;70.15;;;28.42;;
21018;SDS011;10667;51.056;3.732;2022-11-20T09:02:11;66.57;;;28.95;;
21018;SDS011;10667;51.056;3.732;2022-11-20T09:04:37;68.55;;;28.88;;
21018;SDS011;10667;51.056;3.732;2022-11-20T09:07:02;68.55;;;29.75;;
21018;SDS011;10667;51.056;3.732;2022-11-20T09:09:28;68.50;;;28.52;;
21018;SDS011;10667;51.056;3.732;2022-11-20T09:11:54;65.72;;;29.42;;
21018;SDS011;10667;51.056;3.732;2022-11-20T09:14:19;60.08;;;27.08;;
21018;SDS011;10667;51.056;3.732;2022-11-20T09:16:46;63.90;;;27.65;;
21018;SDS011;10667;51.056;3.732;2022-11-20T09:19:12;55.90;;;25.88;;
21018;SDS011;10667;51.056;3.732;2022-11-20T09:21:37;59.70;;;25.70;;
21018;SDS011;10667;51.056;3.732;2022-11-20T09:24:04;59.25;;;26.40;;
21018;SDS011;10667;51.056;3.732;2022-11-20T09:26:30;57.03;;;25.77;;
21018;SDS011;10667;51.056;3.732;2022-11-20T09:28:55;50.78;;;24.48;;
21018;SDS011;10667;51.056;3.732;2022-11-20T09:31:22;52.65;;;24.38;;
21018;SDS011;10667;51.056;3.732;2022-11-20T09:33:49;49.33;;;23.90;;
21018;SDS011;10667;51.056;3.732;2022-11-20T09:36:15;52.45;;;23.85;;
21018;SDS011;10667;51.056;3.732;2022-11-20T09:38:41;48.80;;;22.83;;
21018;SDS011;10667;51.056;3.732;2022-11-20T09:41:12;46.70;;;22.63;;
21018;SDS011;10667;51.056;3.732;2022-11-20T09:51:45;39.67;;;20.60;;
21018;SDS011;10667;51.056;3.732;2022-11-20T09:54:27;42.63;;;20.95;;
21018;SDS011;10667;51.056;3.732;2022-11-20T09:57:00;40.80;;;20.17;;
21018;SDS011;10667;51.056;3.732;2022-11-20T09:59:48;38.78;;;19.08;;
21018;SDS011;10667;51.056;3.732;2022-11-20T10:07:55;36.35;;;18.50;;
21018;SDS011;10667;51.056;3.732;2022-11-20T10:10:34;36.78;;;17.88;;
21018;SDS011;10667;51.056;3.732;2022-11-20T10:18:44;36.42;;;16.85;;
21018;SDS011;10667;51.056;3.732;2022-11-20T10:29:41;28.00;;;14.88;;
21018;SDS011;10667;51.056;3.732;2022-11-20T10:32:15;28.95;;;14.65;;
21018;SDS011;10667;51.056;3.732;2022-11-20T10:34:48;27.35;;;14.13;;
21018;SDS011;10667;51.056;3.732;2022-11-20T10:37:22;27.45;;;14.43;;
21018;SDS011;10667;51.056;3.732;2022-11-20T10:42:17;23.10;;;11.38;;
21018;SDS011;10667;51.056;3.732;2022-11-20T10:47:49;16.02;;;9.68;;
21018;SDS011;10667;51.056;3.732;2022-11-20T10:50:30;19.25;;;8.68;;
21018;SDS011;10667;51.056;3.732;2022-11-20T10:52:59;16.83;;;8.18;;
21018;SDS011;10667;51.056;3.732;2022-11-20T10:55:58;18.65;;;8.18;;
21018;SDS011;10667;51.056;3.732;2022-11-20T10:58:45;15.88;;;7.55;;
21018;SDS011;10667;51.056;3.732;2022-11-20T11:01:18;13.45;;;7.03;;
21018;SDS011;10667;51.056;3.732;2022-11-20T11:03:48;10.18;;;6.55;;
21018;SDS011;10667;51.056;3.732;2022-11-20T11:08:53;11.75;;;6.72;;
21018;SDS011;10667;51.056;3.732;2022-11-20T11:11:21;13.38;;;6.30;;
21018;SDS011;10667;51.056;3.732;2022-11-20T11:13:49;11.35;;;6.22;;
21018;SDS011;10667;51.056;3.732;2022-11-20T11:16:23;17.05;;;6.72;;
21018;SDS011;10667;51.056;3.732;2022-11-20T11:18:50;11.88;;;6.40;;
21018;SDS011;10667;51.056;3.732;2022-11-20T11:21:23;16.40;;;6.25;;
21018;SDS011;10667;51.056;3.732;2022-11-20T11:24:00;12.38;;;5.80;;
21018;SDS011;10667;51.056;3.732;2022-11-20T11:26:27;11.25;;;5.82;;
21018;SDS011;10667;51.056;3.732;2022-11-20T11:29:03;17.02;;;5.68;;
21018;SDS011;10667;51.056;3.732;2022-11-20T11:31:31;13.65;;;5.40;;
21018;SDS011;10667;51.056;3.732;2022-11-20T11:34:05;10.18;;;6.03;;
21018;SDS011;10667;51.056;3.732;2022-11-20T11:36:32;12.20;;;4.68;;
21018;SDS011;10667;51.056;3.732;2022-11-20T11:39:02;6.72;;;4.55;;
21018;SDS011;10667;51.056;3.732;2022-11-20T11:41:31;12.95;;;5.82;;
21018;SDS011;10667;51.056;3.732;2022-11-20T11:44:03;8.02;;;4.90;;
21018;SDS011;10667;51.056;3.732;2022-11-20T11:47:02;13.52;;;5.65;;
21018;SDS011;10667;51.056;3.732;2022-11-20T11:49:30;8.55;;;4.78;;
21018;SDS011;10667;51.056;3.732;2022-11-20T11:52:10;9.25;;;5.03;;
21018;SDS011;10667;51.056;3.732;2022-11-20T11:54:51;9.50;;;5.00;;
21018;SDS011;10667;51.056;3.732;2022-11-20T12:07:42;9.50;;;5.65;;
21018;SDS011;10667;51.056;3.732;2022-11-20T12:10:17;16.80;;;6.57;;
21018;SDS011;10667;51.056;3.732;2022-11-20T12:12:49;10.80;;;6.22;;
21018;SDS011;10667;51.056;3.732;2022-11-20T12:15:26;9.40;;;6.18;;
21018;SDS011;10667;51.056;3.732;2022-11-20T12:17:55;10.68;;;5.88;;
21018;SDS011;10667;51.056;3.732;2022-11-20T12:20:35;10.73;;;6.07;;
21018;SDS011;10667;51.056;3.732;2022-11-20T12:23:13;10.75;;;5.90;;
21018;SDS011;10667;51.056;3.732;2022-11-20T12:25:54;7.85;;;5.55;;
21018;SDS011;10667;51.056;3.732;2022-11-20T12:34:08;10.45;;;5.68;;
21018;SDS011;10667;51.056;3.732;2022-11-20T12:36:45;10.02;;;5.80;;
21018;SDS011;10667;51.056;3.732;2022-11-20T12:56:21;10.25;;;6.43;;
21018;SDS011;10667;51.056;3.732;2022-11-20T13:01:58;8.18;;;6.40;;
21018;SDS011;10667;51.056;3.732;2022-11-20T13:07:29;8.85;;;6.00;;
21018;SDS011;10667;51.056;3.732;2022-11-20T13:09:56;7.97;;;5.82;;
21018;SDS011;10667;51.056;3.732;2022-11-20T13:12:33;9.95;;;5.95;;
21018;SDS011;10667;51.056;3.732;2022-11-20T13:20:26;7.03;;;5.55;;
21018;SDS011;10667;51.056;3.732;2022-11-20T13:22:54;5.72;;;4.80;;
21018;SDS011;10667;51.056;3.732;2022-11-20T13:25:35;6.20;;;5.45;;
21018;SDS011;10667;51.056;3.732;2022-11-20T13:30:34;7.88;;;4.85;;
21018;SDS011;10667;51.056;3.732;2022-11-20T13:35:56;6.88;;;4.95;;
21018;SDS011;10667;51.056;3.732;2022-11-20T13:38:26;5.28;;;4.78;;
21018;SDS011;10667;51.056;3.732;2022-11-20T13:40:54;7.65;;;4.88;;
21018;SDS011;10667;51.056;3.732;2022-11-20T13:43:39;6.63;;;5.03;;
21018;SDS011;10667;51.056;3.732;2022-11-20T13:46:07;5.47;;;4.82;;
21018;SDS011;10667;51.056;3.732;2022-11-20T13:48:41;6.97;;;4.63;;
21018;SDS011;10667;51.056;3.732;2022-11-20T13:56:21;5.40;;;3.78;;
21018;SDS011;10667;51.056;3.732;2022-11-20T13:59:02;4.97;;;3.80;;
21018;SDS011;10667;51.056;3.732;2022-11-20T14:01:40;6.53;;;3.90;;
21018;SDS011;10667;51.056;3.732;2022-11-20T14:04:11;5.25;;;4.18;;
21018;SDS011;10667;51.056;3.732;2022-11-20T14:06:43;4.75;;;3.80;;
21018;SDS011;10667;51.056;3.732;2022-11-20T14:09:12;4.75;;;4.25;;
21018;SDS011;10667;51.056;3.732;2022-11-20T14:11:49;7.72;;;4.35;;
21018;SDS011;10667;51.056;3.732;2022-11-20T14:14:19;4.85;;;4.32;;
21018;SDS011;10667;51.056;3.732;2022-11-20T14:16:47;4.60;;;3.90;;
21018;SDS011;10667;51.056;3.732;2022-11-20T14:21:45;5.28;;;3.33;;
21018;SDS011;10667;51.056;3.732;2022-11-20T14:24:24;6.25;;;3.63;;
21018;SDS011;10667;51.056;3.732;2022-11-20T14:26:50;7.03;;;4.20;;
21018;SDS011;10667;51.056;3.732;2022-11-20T14:32:02;5.18;;;4.38;;
21018;SDS011;10667;51.056;3.732;2022-11-20T14:34:30;7.95;;;4.78;;
21018;SDS011;10667;51.056;3.732;2022-11-20T14:36:58;6.70;;;4.90;;
21018;SDS011;10667;51.056;3.732;2022-11-20T14:39:30;7.18;;;4.80;;
21018;SDS011;10667;51.056;3.732;2022-11-20T14:42:01;7.68;;;4.18;;
21018;SDS011;10667;51.056;3.732;2022-11-20T14:44:32;6.20;;;4.43;;
21018;SDS011;10667;51.056;3.732;2022-11-20T14:47:00;5.43;;;4.18;;
21018;SDS011;10667;51.056;3.732;2022-11-20T14:49:28;4.82;;;4.25;;
21018;SDS011;10667;51.056;3.732;2022-11-20T14:52:00;7.90;;;4.47;;
21018;SDS011;10667;51.056;3.732;2022-11-20T14:54:27;5.68;;;4.35;;
21018;SDS011;10667;51.056;3.732;2022-11-20T14:57:01;10.23;;;4.80;;
21018;SDS011;10667;51.056;3.732;2022-11-20T14:59:29;11.45;;;4.30;;
21018;SDS011;10667;51.056;3.732;2022-11-20T15:01:58;11.43;;;4.10;;
21018;SDS011;10667;51.056;3.732;2022-11-20T15:04:26;12.88;;;4.15;;
21018;SDS011;10667;51.056;3.732;2022-11-20T15:06:53;14.43;;;4.97;;
21018;SDS011;10667;51.056;3.732;2022-11-20T15:09:20;10.00;;;4.05;;
21018;SDS011;10667;51.056;3.732;2022-11-20T15:12:05;11.50;;;4.47;;
21018;SDS011;10667;51.056;3.732;2022-11-20T15:14:30;14.05;;;3.67;;
21018;SDS011;10667;51.056;3.732;2022-11-20T15:16:57;12.75;;;3.83;;
21018;SDS011;10667;51.056;3.732;2022-11-20T15:19:25;16.42;;;4.30;;
21018;SDS011;10667;51.056;3.732;2022-11-20T15:21:51;15.25;;;3.97;;
21018;SDS011;10667;51.056;3.732;2022-11-20T15:24:17;17.15;;;3.80;;
21018;SDS011;10667;51.056;3.732;2022-11-20T15:26:43;17.58;;;4.15;;
21018;SDS011;10667;51.056;3.732;2022-11-20T15:29:10;17.77;;;3.70;;
21018;SDS011;10667;51.056;3.732;2022-11-20T15:31:38;17.08;;;3.67;;
21018;SDS011;10667;51.056;3.732;2022-11-20T15:34:11;13.52;;;4.53;;
21018;SDS011;10667;51.056;3.732;2022-11-20T15:36:38;14.80;;;4.13;;
21018;SDS011;10667;51.056;3.732;2022-11-20T15:39:04;18.48;;;3.90;;
21018;SDS011;10667;51.056;3.732;2022-11-20T15:41:32;15.98;;;4.50;;
21018;SDS011;10667;51.056;3.732;2022-11-20T15:44:01;27.83;;;5.03;;
21018;SDS011;10667;51.056;3.732;2022-11-20T15:46:29;14.75;;;4.25;;
21018;SDS011;10667;51.056;3.732;2022-11-20T15:49:03;20.98;;;4.35;;
21018;SDS011;10667;51.056;3.732;2022-11-20T15:51:36;14.30;;;4.53;;
21018;SDS011;10667;51.056;3.732;2022-11-20T15:54:08;18.25;;;4.18;;
21018;SDS011;10667;51.056;3.732;2022-11-20T15:56:36;16.25;;;4.90;;
21018;SDS011;10667;51.056;3.732;2022-11-20T15:59:02;13.75;;;4.68;;
21018;SDS011;10667;51.056;3.732;2022-11-20T16:01:28;18.75;;;4.32;;
21018;SDS011;10667;51.056;3.732;2022-11-20T16:03:54;14.77;;;4.85;;
21018;SDS011;10667;51.056;3.732;2022-11-20T16:06:19;18.20;;;4.70;;
21018;SDS011;10667;51.056;3.732;2022-11-20T16:08:45;21.73;;;5.50;;
21018;SDS011;10667;51.056;3.732;2022-11-20T16:11:14;22.10;;;4.55;;
21018;SDS011;10667;51.056;3.732;2022-11-20T16:13:41;15.63;;;3.70;;
21018;SDS011;10667;51.056;3.732;2022-11-20T16:16:27;11.25;;;3.80;;
21018;SDS011;10667;51.056;3.732;2022-11-20T16:18:55;23.35;;;4.38;;
21018;SDS011;10667;51.056;3.732;2022-11-20T16:21:21;14.35;;;3.83;;